Time;durP1;ratioP1;P1;durP2;ratioP2;P2;SDS_P1;SDS_P2;PMS_P1;PMS_P2;Temp;Humidity;BMP_temperature;BMP_pressure;BME280_temperature;BME280_humidity;BME280_pressure;Samples;Min_cycle;Max_cycle;Signal;HPM_P1;HPM_P2
2024/02/09 00:00:57;;;;;;;19.00;7.55;;;10.70;99.90;;;;;;5012727;28;20492;-75
2024/02/09 00:03:23;;;;;;;17.20;6.55;;;10.70;99.90;;;;;;5012629;28;20385;-76
2024/02/09 00:05:52;;;;;;;22.38;7.03;;;10.70;99.90;;;;;;5012347;28;20409;-75
2024/02/09 00:08:19;;;;;;;18.45;6.68;;;10.70;99.90;;;;;;5012628;28;20762;-76
2024/02/09 00:10:47;;;;;;;18.77;8.23;;;10.70;99.90;;;;;;5012268;28;20748;-75
2024/02/09 00:13:14;;;;;;;17.13;5.93;;;10.60;99.90;;;;;;5012170;28;20385;-75
2024/02/09 00:15:42;;;;;;;17.60;6.50;;;10.70;99.90;;;;;;5012455;28;20449;-75
2024/02/09 00:18:08;;;;;;;19.50;7.10;;;10.70;99.90;;;;;;5012219;28;20389;-75
2024/02/09 00:20:33;;;;;;;17.00;7.53;;;10.70;99.90;;;;;;5012307;28;20396;-76
2024/02/09 00:22:59;;;;;;;17.07;6.33;;;10.70;99.90;;;;;;5012480;28;20388;-74
2024/02/09 00:25:26;;;;;;;21.20;8.13;;;10.80;99.90;;;;;;5012270;28;20392;-76
2024/02/09 00:27:52;;;;;;;20.27;8.40;;;10.70;99.90;;;;;;5011268;28;20484;-74
2024/02/09 00:30:18;;;;;;;18.98;7.15;;;10.70;99.90;;;;;;5012115;28;20385;-74
2024/02/09 00:32:44;;;;;;;17.80;7.00;;;10.70;99.90;;;;;;5011929;28;20411;-76
2024/02/09 00:35:10;;;;;;;20.80;7.43;;;10.60;99.90;;;;;;5012033;28;20388;-76
2024/02/09 00:37:38;;;;;;;22.92;8.65;;;10.70;99.90;;;;;;5013106;28;20946;-75
2024/02/09 00:40:06;;;;;;;20.35;8.60;;;10.70;99.90;;;;;;5013100;28;20404;-75
2024/02/09 00:42:34;;;;;;;23.10;7.75;;;10.70;99.90;;;;;;5012492;28;20391;-76
2024/02/09 00:45:01;;;;;;;18.70;7.10;;;10.70;99.90;;;;;;5011898;28;20416;-74
2024/02/09 00:47:27;;;;;;;19.00;7.03;;;10.70;99.90;;;;;;5011861;28;20401;-75
2024/02/09 00:49:53;;;;;;;24.80;7.90;;;10.70;99.90;;;;;;5011854;28;20795;-75
2024/02/09 00:52:20;;;;;;;30.40;8.30;;;10.70;99.90;;;;;;5011575;28;20392;-76
2024/02/09 00:54:46;;;;;;;21.15;6.88;;;10.70;99.90;;;;;;5012305;28;20512;-75
2024/02/09 00:57:12;;;;;;;20.07;6.80;;;10.70;99.90;;;;;;5013174;28;20880;-76
2024/02/09 00:59:38;;;;;;;16.67;7.82;;;10.60;99.90;;;;;;5012350;28;20420;-74
2024/02/09 01:02:06;;;;;;;19.40;7.00;;;10.60;99.90;;;;;;5011585;28;20401;-77
2024/02/09 01:04:41;;;;;;;25.88;6.32;;;10.70;99.90;;;;;;5011461;28;20439;-76
2024/02/09 01:07:13;;;;;;;21.13;6.80;;;10.70;99.90;;;;;;5011751;28;20915;-76
2024/02/09 01:09:38;;;;;;;16.30;7.05;;;10.60;99.90;;;;;;5011791;28;20465;-76
2024/02/09 02:45:02;;;;;;;19.10;7.20;;;10.80;99.90;;;;;;5014464;28;20392;-77
2024/02/09 02:47:27;;;;;;;20.37;6.50;;;10.80;99.90;;;;;;5013407;28;20408;-76
2024/02/09 03:04:18;;;;;;;18.77;6.03;;;10.70;99.90;;;;;;5015419;28;20384;-76
2024/02/09 03:06:24;;;;;;;13.93;6.05;;;10.80;99.90;;;;;;5014161;28;20415;-75
2024/02/09 03:08:50;;;;;;;14.65;5.60;;;10.70;99.90;;;;;;5014929;28;20394;-74
2024/02/09 03:11:16;;;;;;;19.73;7.10;;;10.70;99.90;;;;;;5015039;28;20741;-76
2024/02/09 03:13:42;;;;;;;22.08;6.45;;;10.80;99.90;;;;;;5014735;28;20420;-75
2024/02/09 03:16:08;;;;;;;15.45;5.85;;;10.70;99.90;;;;;;5014071;28;20404;-77
2024/02/09 03:18:33;;;;;;;15.37;6.73;;;10.70;99.90;;;;;;5014271;28;20385;-77
2024/02/09 03:20:59;;;;;;;15.00;6.40;;;10.60;99.90;;;;;;5014380;28;20922;-76
2024/02/09 03:23:25;;;;;;;20.27;6.47;;;10.60;99.90;;;;;;5013550;28;20404;-76
2024/02/09 03:25:51;;;;;;;15.27;6.40;;;10.70;99.90;;;;;;5014158;28;20752;-76
2024/02/09 03:28:18;;;;;;;16.20;6.10;;;10.70;99.90;;;;;;5014234;28;20405;-76
2024/02/09 03:30:44;;;;;;;17.15;6.43;;;10.70;99.90;;;;;;5013710;28;20413;-75
2024/02/09 03:33:11;;;;;;;15.43;6.38;;;10.70;99.90;;;;;;5013950;28;20479;-76
2024/02/09 03:35:37;;;;;;;18.37;6.47;;;10.70;99.90;;;;;;5015363;28;20791;-77
2024/02/09 03:38:03;;;;;;;13.03;6.10;;;10.80;99.90;;;;;;5016473;28;20389;-76
2024/02/09 03:40:28;;;;;;;19.37;6.67;;;10.80;99.90;;;;;;5016341;28;20867;-76
2024/02/09 03:42:54;;;;;;;15.80;6.00;;;10.70;99.90;;;;;;5014450;28;20407;-76
2024/02/09 03:45:19;;;;;;;18.20;6.33;;;10.70;99.90;;;;;;5014576;28;20420;-75
2024/02/09 03:47:45;;;;;;;19.77;6.30;;;10.70;99.90;;;;;;5015591;28;20463;-77
2024/02/09 03:50:11;;;;;;;17.42;6.63;;;10.70;99.90;;;;;;5014654;28;20843;-77
2024/02/09 03:52:37;;;;;;;14.45;5.50;;;10.70;99.90;;;;;;5014775;28;20458;-77
2024/02/09 03:55:03;;;;;;;18.80;6.50;;;10.70;99.90;;;;;;5014843;28;20392;-76
2024/02/09 03:57:31;;;;;;;15.13;6.60;;;10.70;99.90;;;;;;5014775;28;20397;-76
2024/02/09 03:59:58;;;;;;;18.73;6.18;;;10.60;99.90;;;;;;5014630;28;20431;-76
2024/02/09 04:02:23;;;;;;;15.55;5.97;;;10.70;99.90;;;;;;5012052;28;20389;-76
2024/02/09 04:04:49;;;;;;;21.58;6.50;;;10.80;99.90;;;;;;5013681;28;20463;-76
2024/02/09 04:07:20;;;;;;;14.02;5.50;;;10.70;99.90;;;;;;5014588;28;20416;-77
2024/02/09 04:09:47;;;;;;;19.15;6.30;;;10.70;99.90;;;;;;5013591;28;20373;-76
2024/02/09 04:12:13;;;;;;;14.48;5.90;;;10.70;99.90;;;;;;5013606;28;20408;-76
2024/02/09 04:14:38;;;;;;;10.93;5.07;;;10.80;99.90;;;;;;5014682;28;20385;-77
2024/02/09 04:17:07;;;;;;;14.70;5.80;;;10.70;99.90;;;;;;5016000;28;20419;-77
2024/02/09 04:19:39;;;;;;;13.25;5.40;;;10.70;99.90;;;;;;5014436;28;20906;-77
2024/02/09 04:22:10;;;;;;;19.00;6.45;;;10.60;99.90;;;;;;5013287;28;20883;-77
2024/02/09 04:24:38;;;;;;;12.68;5.65;;;10.70;99.90;;;;;;5012464;28;20451;-75
2024/02/09 04:27:05;;;;;;;11.02;4.63;;;10.70;99.90;;;;;;5017001;28;20929;-77
2024/02/09 04:29:32;;;;;;;13.82;5.10;;;10.60;99.90;;;;;;5018418;28;20412;-75
2024/02/09 04:32:00;;;;;;;10.60;5.05;;;10.60;99.90;;;;;;5012918;28;20737;-77
2024/02/09 04:34:26;;;;;;;12.18;5.22;;;10.70;99.90;;;;;;5012436;28;20749;-76
2024/02/09 04:36:55;;;;;;;8.83;4.80;;;10.60;99.90;;;;;;5012634;28;20396;-76
2024/02/09 04:39:20;;;;;;;14.03;5.80;;;10.60;99.90;;;;;;5013001;28;20953;-75
2024/02/09 04:41:50;;;;;;;10.30;5.30;;;10.60;99.90;;;;;;5012729;28;20396;-76
2024/02/09 04:44:16;;;;;;;11.57;4.90;;;10.60;99.90;;;;;;5020694;28;20378;-76
2024/02/09 04:46:45;;;;;;;11.73;5.38;;;10.60;99.90;;;;;;5015616;28;20816;-77
2024/02/09 04:49:11;;;;;;;10.10;5.80;;;10.70;99.90;;;;;;5021167;28;20921;-76
2024/02/09 04:51:40;;;;;;;9.15;5.43;;;10.60;99.90;;;;;;5031976;28;20383;-76
2024/02/09 04:54:07;;;;;;;9.77;4.82;;;10.60;99.90;;;;;;5030852;28;20513;-76
2024/02/09 04:56:33;;;;;;;11.47;5.03;;;10.60;99.90;;;;;;5023976;28;20493;-74
2024/02/09 04:59:00;;;;;;;9.43;4.75;;;10.60;99.90;;;;;;5022886;28;20393;-73
2024/02/09 05:01:30;;;;;;;8.98;4.38;;;10.70;99.90;;;;;;5027381;28;20401;-74
2024/02/09 05:03:59;;;;;;;9.60;4.65;;;10.60;99.90;;;;;;5012524;28;20393;-73
2024/02/09 05:06:29;;;;;;;10.75;4.70;;;10.60;99.90;;;;;;5017780;28;20424;-73
2024/02/09 05:08:57;;;;;;;11.85;4.90;;;10.60;99.90;;;;;;5017581;28;20389;-73
2024/02/09 05:11:28;;;;;;;10.07;4.70;;;10.60;99.90;;;;;;5017109;28;20785;-72
2024/02/09 05:13:54;;;;;;;7.10;3.90;;;10.60;99.90;;;;;;5020453;28;20393;-77
2024/02/09 05:16:21;;;;;;;7.60;3.90;;;10.60;99.90;;;;;;5031944;28;20399;-76
2024/02/09 05:18:50;;;;;;;10.27;4.40;;;10.60;99.90;;;;;;5032269;28;20402;-75
2024/02/09 05:21:17;;;;;;;10.32;4.85;;;10.50;99.90;;;;;;5032117;28;20383;-75
2024/02/09 05:23:42;;;;;;;10.37;4.80;;;10.60;99.90;;;;;;5031371;28;20866;-76
2024/02/09 05:26:09;;;;;;;10.67;4.23;;;10.60;99.90;;;;;;5032600;28;20410;-76
2024/02/09 05:28:39;;;;;;;7.47;4.25;;;10.60;99.90;;;;;;5031205;28;20380;-75
2024/02/09 05:31:22;;;;;;;9.57;4.80;;;10.60;99.90;;;;;;5030760;28;21002;-75
2024/02/09 05:33:49;;;;;;;15.00;6.00;;;10.60;99.90;;;;;;5030932;28;20385;-75
2024/02/09 05:36:25;;;;;;;8.90;4.03;;;10.60;99.90;;;;;;5030711;28;20405;-74
2024/02/09 05:38:57;;;;;;;6.38;3.53;;;10.60;99.90;;;;;;5029466;28;20399;-75
2024/02/09 05:41:22;;;;;;;6.63;4.20;;;10.60;99.90;;;;;;5030723;28;20390;-76
2024/02/09 05:43:52;;;;;;;8.47;4.17;;;10.60;99.90;;;;;;5030629;28;20786;-76
2024/02/09 05:46:17;;;;;;;9.35;5.10;;;10.60;99.90;;;;;;5030375;28;20411;-75
2024/02/09 05:48:49;;;;;;;7.23;4.27;;;10.60;99.90;;;;;;5030522;28;20821;-75
2024/02/09 05:51:21;;;;;;;8.95;4.20;;;10.60;99.90;;;;;;5030265;28;20913;-74
2024/02/09 05:53:47;;;;;;;10.32;4.15;;;10.60;99.90;;;;;;5030461;28;20379;-74
2024/02/09 05:56:25;;;;;;;9.97;4.33;;;10.60;99.90;;;;;;5030534;28;20399;-75
2024/02/09 05:58:51;;;;;;;10.50;4.23;;;10.60;99.90;;;;;;5030734;28;20466;-75
2024/02/09 06:01:19;;;;;;;8.68;3.85;;;10.60;99.90;;;;;;5030703;28;20405;-75
2024/02/09 06:03:45;;;;;;;10.23;4.65;;;10.60;99.90;;;;;;5030195;28;20387;-74
2024/02/09 06:06:12;;;;;;;8.10;4.30;;;10.60;99.90;;;;;;5030980;28;20468;-75
2024/02/09 06:08:38;;;;;;;7.65;4.35;;;10.70;99.90;;;;;;5030934;28;20760;-74
2024/02/09 06:11:04;;;;;;;12.10;4.72;;;10.70;99.90;;;;;;5030656;28;20394;-76
2024/02/09 06:13:30;;;;;;;8.38;4.32;;;10.70;99.90;;;;;;5032206;28;20785;-75
2024/02/09 06:15:58;;;;;;;8.93;4.63;;;10.70;99.90;;;;;;5032500;28;20391;-75
2024/02/09 06:18:27;;;;;;;5.82;4.38;;;10.60;99.90;;;;;;5029698;28;20486;-75
2024/02/09 06:20:53;;;;;;;10.23;5.43;;;10.60;99.90;;;;;;5030647;28;20395;-75
2024/02/09 06:23:23;;;;;;;10.70;5.00;;;10.60;99.90;;;;;;5030014;28;20387;-75
2024/02/09 06:25:49;;;;;;;9.00;4.60;;;10.60;99.90;;;;;;5032491;28;20881;-75
2024/02/09 06:28:16;;;;;;;13.43;5.30;;;10.60;99.90;;;;;;5034533;28;20877;-77
2024/02/09 06:30:42;;;;;;;8.20;4.80;;;10.60;99.90;;;;;;5034427;28;20395;-77
2024/02/09 06:33:08;;;;;;;11.88;4.38;;;10.60;99.90;;;;;;5034577;28;20398;-74
2024/02/09 06:35:34;;;;;;;6.25;3.55;;;10.60;99.90;;;;;;5034226;28;20379;-76
2024/02/09 06:37:59;;;;;;;9.90;4.60;;;10.60;99.90;;;;;;5034659;28;20874;-76
2024/02/09 06:40:26;;;;;;;6.90;3.90;;;10.50;99.90;;;;;;5034961;28;20802;-76
2024/02/09 06:42:51;;;;;;;9.43;4.35;;;10.50;99.90;;;;;;5034785;28;20387;-75
2024/02/09 06:45:17;;;;;;;8.93;4.20;;;10.50;99.90;;;;;;5034580;28;20478;-76
2024/02/09 06:47:43;;;;;;;10.35;4.20;;;10.50;99.90;;;;;;5034940;28;20389;-75
2024/02/09 06:50:10;;;;;;;8.07;4.10;;;10.50;99.90;;;;;;5035060;28;20391;-76
2024/02/09 06:52:37;;;;;;;7.00;4.07;;;10.60;99.90;;;;;;5032776;28;20449;-75
2024/02/09 06:55:08;;;;;;;5.95;3.70;;;10.60;99.90;;;;;;5033864;28;20785;-75
2024/02/09 06:57:34;;;;;;;8.10;4.13;;;10.60;99.90;;;;;;5034436;28;20387;-76
2024/02/09 07:00:00;;;;;;;7.70;4.10;;;10.60;99.90;;;;;;5032993;28;20411;-75
2024/02/09 07:02:25;;;;;;;7.60;3.85;;;10.60;99.90;;;;;;5033938;28;20497;-75
2024/02/09 07:05:00;;;;;;;7.80;3.90;;;10.60;99.90;;;;;;5033251;28;20407;-75
2024/02/09 07:07:28;;;;;;;9.32;5.18;;;10.60;99.90;;;;;;5035729;28;20415;-75
2024/02/09 07:09:54;;;;;;;10.73;4.50;;;10.70;99.90;;;;;;5033465;28;20429;-76
2024/02/09 07:12:20;;;;;;;7.45;4.03;;;10.70;99.90;;;;;;5032793;28;20379;-75
2024/02/09 07:14:45;;;;;;;10.07;3.60;;;10.70;99.90;;;;;;5033088;28;20865;-74
2024/02/09 07:17:11;;;;;;;9.75;4.22;;;10.70;99.90;;;;;;5032087;28;20877;-75
2024/02/09 07:19:36;;;;;;;7.07;3.50;;;10.80;99.90;;;;;;5033212;28;20391;-76
2024/02/09 07:22:02;;;;;;;7.07;3.77;;;10.80;99.90;;;;;;5033744;28;20449;-75
2024/02/09 07:24:27;;;;;;;7.00;4.00;;;10.80;99.90;;;;;;5033092;28;20402;-77
2024/02/09 07:26:53;;;;;;;8.10;3.60;;;10.80;99.90;;;;;;5033042;28;20411;-75
2024/02/09 07:29:22;;;;;;;8.77;4.20;;;10.80;99.90;;;;;;5033210;28;20387;-75
2024/02/09 07:31:49;;;;;;;7.78;4.32;;;10.80;99.90;;;;;;5033370;28;20384;-76
2024/02/09 07:34:15;;;;;;;9.15;4.55;;;10.80;99.90;;;;;;5032980;28;20391;-75
2024/02/09 07:36:41;;;;;;;6.97;4.60;;;10.90;99.90;;;;;;5033507;28;20395;-76
2024/02/09 07:39:07;;;;;;;10.20;3.77;;;10.90;99.90;;;;;;5036488;28;20386;-76
2024/02/09 07:41:33;;;;;;;6.15;4.10;;;10.80;99.90;;;;;;5035018;28;20394;-74
2024/02/09 07:44:01;;;;;;;7.90;4.00;;;10.80;99.90;;;;;;5034832;28;20395;-75
2024/02/09 07:46:27;;;;;;;9.20;3.90;;;10.80;99.90;;;;;;5033042;28;20399;-75
2024/02/09 07:48:55;;;;;;;8.52;4.45;;;10.80;99.90;;;;;;5032600;28;20383;-76
2024/02/09 07:51:20;;;;;;;10.55;4.40;;;10.80;99.90;;;;;;5032542;28;20379;-76
2024/02/09 07:53:52;;;;;;;8.77;4.10;;;10.80;99.90;;;;;;5032167;28;20391;-75
2024/02/09 07:56:19;;;;;;;7.68;3.65;;;10.90;99.90;;;;;;5032345;28;20936;-75
2024/02/09 07:58:44;;;;;;;7.03;3.37;;;10.80;99.90;;;;;;5032893;28;20383;-75
2024/02/09 08:01:10;;;;;;;8.10;3.90;;;10.80;99.90;;;;;;5032528;28;20723;-76
2024/02/09 08:03:38;;;;;;;8.13;3.90;;;10.80;99.90;;;;;;5033180;28;20383;-75
2024/02/09 08:06:04;;;;;;;12.18;4.10;;;10.90;99.90;;;;;;5032696;28;20501;-77
2024/02/09 08:08:30;;;;;;;10.10;3.90;;;10.90;99.90;;;;;;5032091;28;20417;-74
2024/02/09 08:10:57;;;;;;;12.27;4.40;;;10.90;99.90;;;;;;5032346;28;20466;-75
2024/02/09 08:13:23;;;;;;;9.73;3.72;;;10.90;99.90;;;;;;5031864;28;20379;-75
2024/02/09 08:15:49;;;;;;;8.10;4.10;;;10.90;99.90;;;;;;5032871;28;20382;-75
2024/02/09 08:18:14;;;;;;;8.88;4.20;;;11.00;99.90;;;;;;5032727;28;20379;-75
2024/02/09 08:20:41;;;;;;;5.57;3.50;;;10.90;99.90;;;;;;5032110;28;20442;-77
2024/02/09 08:23:07;;;;;;;8.65;3.40;;;11.00;99.90;;;;;;5034252;28;20397;-76
2024/02/09 08:25:32;;;;;;;10.83;4.87;;;11.00;99.90;;;;;;5032145;28;21053;-76
2024/02/09 08:28:00;;;;;;;5.97;3.40;;;11.10;99.90;;;;;;5032408;28;20403;-75
2024/02/09 08:30:26;;;;;;;8.40;4.50;;;11.10;99.90;;;;;;5032718;28;20383;-76
2024/02/09 08:32:53;;;;;;;9.88;4.20;;;11.10;99.90;;;;;;5032351;28;20375;-75
2024/02/09 08:35:19;;;;;;;9.38;4.13;;;11.20;99.90;;;;;;5034538;28;20817;-75
2024/02/09 08:37:45;;;;;;;11.05;4.13;;;11.30;99.90;;;;;;5034650;28;20908;-76
2024/02/09 08:40:10;;;;;;;9.05;3.70;;;11.40;99.90;;;;;;5031849;28;20419;-77
2024/02/09 08:42:36;;;;;;;9.35;4.00;;;11.40;99.90;;;;;;5031638;28;21056;-74
2024/02/09 08:45:02;;;;;;;10.20;3.90;;;11.50;99.90;;;;;;5032076;28;20391;-75
2024/02/09 08:47:28;;;;;;;9.30;4.00;;;11.50;99.20;;;;;;5033918;28;20411;-76
2024/02/09 08:49:54;;;;;;;12.18;4.05;;;11.50;99.40;;;;;;5033154;28;20392;-75
2024/02/09 08:52:20;;;;;;;8.33;3.50;;;11.60;96.50;;;;;;5031877;28;20383;-75
2024/02/09 08:54:45;;;;;;;11.30;4.00;;;11.70;97.80;;;;;;5031779;28;20453;-77
2024/02/09 08:57:14;;;;;;;7.70;3.67;;;11.60;97.90;;;;;;5031804;28;20415;-75
2024/02/09 08:59:40;;;;;;;9.60;3.22;;;11.70;96.70;;;;;;5032051;28;20406;-75
2024/02/09 09:02:07;;;;;;;7.57;3.58;;;11.80;94.20;;;;;;5031529;28;20390;-75
2024/02/09 09:04:33;;;;;;;7.82;3.65;;;11.80;93.70;;;;;;5031633;28;20387;-77
2024/02/09 09:06:59;;;;;;;11.27;4.07;;;11.80;95.60;;;;;;5031863;28;20419;-75
2024/02/09 09:09:26;;;;;;;10.25;3.75;;;11.90;93.60;;;;;;5031616;28;20444;-76
2024/02/09 09:11:55;;;;;;;7.53;3.60;;;11.90;93.10;;;;;;5031644;28;20785;-75
2024/02/09 09:14:20;;;;;;;7.15;3.90;;;11.90;93.80;;;;;;5031132;28;20383;-74
2024/02/09 09:16:46;;;;;;;7.90;3.37;;;12.10;92.10;;;;;;5031336;28;20414;-74
2024/02/09 09:19:12;;;;;;;12.90;3.90;;;12.30;88.80;;;;;;5031440;28;20452;-76
2024/02/09 09:21:38;;;;;;;6.20;3.92;;;12.30;88.60;;;;;;5047273;28;20712;-75
2024/02/09 09:24:07;;;;;;;9.85;4.70;;;12.30;88.60;;;;;;5031084;28;20391;-75
2024/02/09 09:26:33;;;;;;;7.65;4.10;;;12.40;86.70;;;;;;5031015;28;20407;-77
2024/02/09 09:29:00;;;;;;;7.60;3.70;;;12.40;86.00;;;;;;5030928;28;20410;-75
2024/02/09 09:31:26;;;;;;;6.43;3.70;;;12.50;85.40;;;;;;5031389;28;20383;-75
2024/02/09 09:33:54;;;;;;;6.15;3.70;;;12.60;84.30;;;;;;5033630;28;20750;-76
2024/02/09 09:36:21;;;;;;;7.53;2.70;;;12.70;81.10;;;;;;5033412;28;20387;-75
2024/02/09 09:38:46;;;;;;;9.10;4.40;;;12.80;80.30;;;;;;5033354;28;20462;-75
2024/02/09 09:41:12;;;;;;;9.85;3.30;;;13.00;79.80;;;;;;5032971;28;20449;-74
2024/02/09 09:43:39;;;;;;;9.40;3.20;;;13.00;78.40;;;;;;5033255;28;20936;-77
2024/02/09 09:46:08;;;;;;;6.55;2.85;;;12.90;76.90;;;;;;5035430;28;20440;-75
2024/02/09 09:48:35;;;;;;;4.65;2.70;;;12.90;78.10;;;;;;5033814;28;20383;-76
2024/02/09 09:51:03;;;;;;;5.88;2.70;;;13.00;74.90;;;;;;5034297;28;20379;-77
2024/02/09 09:53:38;;;;;;;8.02;3.53;;;13.10;73.90;;;;;;5034007;28;20387;-75
2024/02/09 09:56:07;;;;;;;7.70;3.00;;;13.20;73.50;;;;;;5032887;28;20387;-76
2024/02/09 09:58:36;;;;;;;5.63;2.40;;;13.20;71.90;;;;;;5031189;28;20380;-77
2024/02/09 10:01:08;;;;;;;4.00;2.33;;;13.20;72.30;;;;;;5035452;28;20383;-75
2024/02/09 10:03:38;;;;;;;3.42;2.38;;;13.20;72.70;;;;;;5033674;28;20465;-75
2024/02/09 10:06:04;;;;;;;7.50;2.90;;;13.20;73.40;;;;;;5036075;28;20448;-76
2024/02/09 10:08:31;;;;;;;5.18;2.92;;;13.20;74.70;;;;;;5036473;28;20414;-76
2024/02/09 10:10:57;;;;;;;5.53;3.05;;;13.30;74.60;;;;;;5034995;28;20444;-76
2024/02/09 10:13:26;;;;;;;7.60;3.30;;;13.30;73.40;;;;;;5034348;28;20916;-76
2024/02/09 10:15:52;;;;;;;6.18;3.20;;;13.40;71.00;;;;;;5034646;28;20808;-76
2024/02/09 10:18:18;;;;;;;5.80;2.78;;;13.30;71.70;;;;;;5034637;28;20379;-75
2024/02/09 10:20:47;;;;;;;6.15;3.10;;;13.30;72.20;;;;;;5034714;28;20410;-76
2024/02/09 10:23:16;;;;;;;6.03;2.85;;;13.30;72.40;;;;;;5034463;28;20376;-74
2024/02/09 10:25:43;;;;;;;9.65;3.38;;;13.40;72.90;;;;;;5034395;28;20802;-75
2024/02/09 10:28:11;;;;;;;9.40;2.92;;;13.40;70.60;;;;;;5034311;28;20402;-76
2024/02/09 10:30:37;;;;;;;6.43;2.75;;;13.40;71.80;;;;;;5034272;28;21012;-76
2024/02/09 10:33:02;;;;;;;5.90;2.60;;;13.40;72.20;;;;;;5033960;28;20386;-76
2024/02/09 10:35:28;;;;;;;5.60;2.63;;;13.60;70.00;;;;;;5033976;28;20379;-75
2024/02/09 10:38:00;;;;;;;5.65;2.60;;;13.60;69.20;;;;;;5034086;28;20398;-74
2024/02/09 10:40:25;;;;;;;6.90;2.40;;;13.80;67.30;;;;;;5034341;28;20394;-76
2024/02/09 10:42:52;;;;;;;4.37;2.20;;;13.90;64.10;;;;;;5034066;28;20383;-76
2024/02/09 10:45:18;;;;;;;7.10;2.30;;;14.10;60.40;;;;;;5033818;28;20441;-76
2024/02/09 10:47:51;;;;;;;11.40;2.92;;;14.20;58.90;;;;;;5033754;28;20406;-77
2024/02/09 10:50:17;;;;;;;4.03;1.90;;;14.30;57.20;;;;;;5033652;28;20761;-76
2024/02/09 10:52:49;;;;;;;5.60;2.50;;;14.30;57.50;;;;;;5033468;28;20383;-75
2024/02/09 10:55:20;;;;;;;4.85;2.20;;;14.40;57.50;;;;;;5034913;28;20387;-76
2024/02/09 10:57:49;;;;;;;3.88;2.10;;;14.50;56.80;;;;;;5035936;28;20430;-76
2024/02/09 11:00:16;;;;;;;4.10;2.30;;;14.60;55.20;;;;;;5035814;28;20394;-77
2024/02/09 11:02:43;;;;;;;5.90;2.20;;;14.60;55.60;;;;;;5036085;28;20387;-77
2024/02/09 11:05:11;;;;;;;6.35;2.60;;;14.50;55.40;;;;;;5034502;28;20426;-77
2024/02/09 11:07:39;;;;;;;6.80;2.20;;;14.60;54.90;;;;;;5037171;28;20402;-77
2024/02/09 11:10:07;;;;;;;9.75;2.28;;;14.60;54.70;;;;;;5036679;28;20460;-76
2024/02/09 11:12:32;;;;;;;4.10;2.22;;;14.70;53.50;;;;;;5035551;28;20833;-76
2024/02/09 11:14:58;;;;;;;5.82;3.05;;;14.60;53.90;;;;;;5035122;28;20399;-77
2024/02/09 11:17:28;;;;;;;9.30;4.00;;;14.60;54.30;;;;;;5035967;28;20394;-75
2024/02/09 11:19:53;;;;;;;8.95;3.08;;;14.70;55.40;;;;;;5036496;28;20467;-76
2024/02/09 11:22:19;;;;;;;6.00;2.93;;;14.80;53.30;;;;;;5035961;28;20467;-75
2024/02/09 11:24:46;;;;;;;7.10;3.10;;;14.90;52.00;;;;;;5035584;28;20379;-76
2024/02/09 11:27:13;;;;;;;6.57;2.55;;;14.80;52.20;;;;;;5034824;28;20406;-75
2024/02/09 11:29:38;;;;;;;7.93;2.67;;;14.80;51.00;;;;;;5033301;28;20467;-76
2024/02/09 11:32:05;;;;;;;8.23;2.73;;;14.90;51.30;;;;;;5033728;28;20768;-76
2024/02/09 11:34:34;;;;;;;3.90;2.20;;;15.00;49.70;;;;;;5033752;28;20425;-76
2024/02/09 11:37:00;;;;;;;9.88;2.80;;;14.90;49.20;;;;;;5033517;28;20788;-78
2024/02/09 11:39:31;;;;;;;5.80;2.45;;;15.10;47.70;;;;;;5033575;28;20886;-76
2024/02/09 11:41:57;;;;;;;10.23;2.25;;;15.10;47.70;;;;;;5033287;28;20478;-75
2024/02/09 11:44:23;;;;;;;6.13;2.40;;;15.10;46.50;;;;;;5032784;28;20819;-76
2024/02/09 11:46:52;;;;;;;4.97;2.17;;;15.20;46.80;;;;;;5033469;28;20409;-76
2024/02/09 11:49:18;;;;;;;6.72;2.28;;;15.30;46.30;;;;;;5032587;28;20398;-77
2024/02/09 11:51:45;;;;;;;3.45;2.30;;;15.50;44.60;;;;;;5033398;28;20395;-76
2024/02/09 11:54:12;;;;;;;4.80;2.50;;;15.50;44.00;;;;;;5032944;28;20395;-77
2024/02/09 11:56:41;;;;;;;8.30;2.90;;;15.50;43.40;;;;;;5033769;28;20441;-77
2024/02/09 11:59:06;;;;;;;5.97;2.20;;;15.60;43.20;;;;;;5032512;28;20795;-77
2024/02/09 12:01:33;;;;;;;5.30;2.00;;;15.60;43.10;;;;;;5032726;28;20494;-76
2024/02/09 12:03:59;;;;;;;8.65;2.20;;;15.60;42.70;;;;;;5032444;28;20426;-76
2024/02/09 12:06:27;;;;;;;7.70;2.80;;;15.50;43.60;;;;;;5033427;28;20824;-75
2024/02/09 12:08:53;;;;;;;6.03;3.00;;;15.60;42.90;;;;;;5032501;28;20387;-77
2024/02/09 12:11:20;;;;;;;8.80;2.77;;;15.40;43.10;;;;;;5034828;28;20410;-77
2024/02/09 12:13:46;;;;;;;4.00;2.37;;;15.40;42.90;;;;;;5033900;28;20387;-76
2024/02/09 12:16:18;;;;;;;7.82;2.20;;;15.30;42.90;;;;;;5033911;28;20413;-75
2024/02/09 12:18:45;;;;;;;6.55;2.58;;;15.30;42.90;;;;;;5033630;28;20391;-75
2024/02/09 12:21:11;;;;;;;4.40;2.38;;;15.10;43.80;;;;;;5033277;28;20390;-77
2024/02/09 12:23:37;;;;;;;5.10;2.58;;;15.10;44.70;;;;;;5031456;28;20371;-76
2024/02/09 12:26:06;;;;;;;5.72;2.25;;;14.90;45.70;;;;;;5032023;28;20434;-77
2024/02/09 12:28:33;;;;;;;6.13;2.90;;;14.80;45.50;;;;;;5032105;28;20394;-77
2024/02/09 12:30:58;;;;;;;6.55;3.10;;;14.70;46.10;;;;;;5031967;28;20870;-75
2024/02/09 12:33:24;;;;;;;6.57;3.00;;;14.80;46.80;;;;;;5031884;28;20393;-76
2024/02/09 12:35:50;;;;;;;7.00;2.83;;;14.80;47.70;;;;;;5032782;28;20387;-75
2024/02/09 12:38:20;;;;;;;5.63;2.55;;;14.80;45.60;;;;;;5032407;28;20387;-75
2024/02/09 12:40:47;;;;;;;6.50;2.70;;;15.10;44.80;;;;;;5032665;28;20405;-75
2024/02/09 12:43:13;;;;;;;4.45;2.28;;;15.20;43.90;;;;;;5034673;28;20398;-75
2024/02/09 12:45:39;;;;;;;7.22;2.83;;;15.30;43.70;;;;;;5032298;28;20387;-77
2024/02/09 12:48:06;;;;;;;7.57;1.90;;;15.30;42.80;;;;;;5032128;28;20460;-77
2024/02/09 12:50:33;;;;;;;6.23;2.20;;;15.20;42.80;;;;;;5031641;28;20416;-76
2024/02/09 12:52:59;;;;;;;5.80;2.30;;;15.20;43.40;;;;;;5031534;28;20391;-75
2024/02/09 12:55:25;;;;;;;5.53;2.60;;;15.30;43.30;;;;;;5031388;28;20379;-76
2024/02/09 12:57:52;;;;;;;5.30;2.50;;;15.20;43.30;;;;;;5032557;28;20397;-76
2024/02/09 13:00:18;;;;;;;5.05;2.50;;;15.20;43.30;;;;;;5036044;28;20454;-75
2024/02/09 13:02:44;;;;;;;8.45;2.50;;;15.20;43.60;;;;;;5046562;28;20414;-74
2024/02/09 13:05:10;;;;;;;6.20;2.20;;;15.10;43.80;;;;;;5046410;28;20696;-76
2024/02/09 13:07:35;;;;;;;5.60;2.20;;;15.10;43.60;;;;;;5040091;28;20472;-76
2024/02/09 13:10:01;;;;;;;8.13;2.70;;;15.10;44.50;;;;;;5031373;28;20440;-78
2024/02/09 13:12:27;;;;;;;5.07;2.47;;;15.10;44.40;;;;;;5031003;28;20383;-77
2024/02/09 13:14:53;;;;;;;6.15;2.80;;;15.20;43.30;;;;;;5031577;28;20383;-77
2024/02/09 13:17:19;;;;;;;7.50;2.93;;;15.10;43.30;;;;;;5031063;28;20405;-75
2024/02/09 13:19:45;;;;;;;3.38;2.50;;;15.10;44.20;;;;;;5031446;28;20395;-76
2024/02/09 13:22:11;;;;;;;8.60;2.60;;;15.00;43.80;;;;;;5034923;28;20415;-76
2024/02/09 13:24:42;;;;;;;6.33;2.73;;;15.10;44.10;;;;;;5031154;28;20394;-74
2024/02/09 13:27:18;;;;;;;5.90;2.60;;;15.30;43.60;;;;;;5031433;28;20434;-76
2024/02/09 13:29:43;;;;;;;6.30;2.60;;;15.20;43.70;;;;;;5031371;28;20387;-75
2024/02/09 13:32:12;;;;;;;5.97;2.90;;;15.10;43.80;;;;;;5032770;28;20387;-76
2024/02/09 13:34:37;;;;;;;6.93;2.50;;;15.10;43.80;;;;;;5030574;28;20803;-76
2024/02/09 13:37:04;;;;;;;4.27;2.10;;;15.00;43.70;;;;;;5034034;28;20390;-76
2024/02/09 13:39:30;;;;;;;8.10;2.90;;;14.80;44.30;;;;;;5031328;28;20411;-77
2024/02/09 13:41:55;;;;;;;8.63;2.50;;;14.80;45.30;;;;;;5030756;28;20802;-74
2024/02/09 13:44:21;;;;;;;9.73;3.25;;;14.70;45.20;;;;;;5030484;28;20905;-75
2024/02/09 13:46:46;;;;;;;8.27;2.83;;;14.60;45.60;;;;;;5030556;28;20399;-77
2024/02/09 13:49:12;;;;;;;5.17;2.63;;;14.50;46.10;;;;;;5032250;28;20395;-77
2024/02/09 13:51:37;;;;;;;8.13;3.40;;;14.60;46.40;;;;;;5031651;28;20886;-75
2024/02/09 13:54:04;;;;;;;13.13;3.00;;;14.60;45.80;;;;;;5031141;28;20410;-75
2024/02/09 13:56:32;;;;;;;5.93;2.63;;;14.60;45.70;;;;;;5030380;28;20411;-77
2024/02/09 13:59:00;;;;;;;8.25;2.80;;;14.70;45.20;;;;;;5031377;28;20390;-76
2024/02/09 14:01:26;;;;;;;10.07;3.33;;;14.60;45.30;;;;;;5031415;28;20391;-75
2024/02/09 14:03:54;;;;;;;6.50;3.30;;;14.40;46.40;;;;;;5034970;28;20398;-76
2024/02/09 14:06:20;;;;;;;8.57;3.17;;;14.30;47.10;;;;;;5031519;28;20411;-77
2024/02/09 14:08:45;;;;;;;6.10;2.90;;;14.10;47.70;;;;;;5031268;28;20391;-75
2024/02/09 14:11:15;;;;;;;7.35;3.50;;;14.10;48.60;;;;;;5032002;28;20433;-76
2024/02/09 14:13:45;;;;;;;7.55;3.38;;;14.00;48.90;;;;;;5030627;28;20387;-76
2024/02/09 14:16:11;;;;;;;9.15;2.85;;;14.00;49.30;;;;;;5032425;28;20398;-74
2024/02/09 14:18:36;;;;;;;7.93;2.90;;;13.90;50.30;;;;;;5031195;28;20395;-75
2024/02/09 14:21:05;;;;;;;7.87;3.30;;;13.90;50.90;;;;;;5031076;28;20376;-75
2024/02/09 14:23:32;;;;;;;7.60;3.40;;;13.80;51.40;;;;;;5030120;28;20470;-74
2024/02/09 14:25:57;;;;;;;9.83;3.60;;;13.80;52.00;;;;;;5030597;28;20406;-74
2024/02/09 14:28:24;;;;;;;6.43;3.50;;;13.80;52.40;;;;;;5030608;28;20406;-75